createdAt,value
2023-01-17T00:00:28.533Z,98845.47
2023-01-17T00:03:09.307Z,98889.78
2023-01-17T00:05:59.355Z,98719.78
2023-01-17T00:08:55.177Z,98895.50
2023-01-17T00:11:42.774Z,98886.38
2023-01-17T00:14:43.584Z,98832.84
2023-01-17T00:17:44.490Z,98855.19
2023-01-17T00:20:42.290Z,98895.34
2023-01-17T00:23:33.979Z,98898.91
2023-01-17T00:26:03.620Z,98876.03
2023-01-17T00:28:39.353Z,98792.22
2023-01-17T00:31:09.398Z,98774.47
2023-01-17T00:33:36.594Z,98854.13
2023-01-17T00:36:24.677Z,98708.13
2023-01-17T00:39:25.717Z,98853.88
2023-01-17T00:42:06.084Z,98881.34
2023-01-17T00:44:51.593Z,98887.25
2023-01-17T00:47:37.659Z,98886.50
2023-01-17T00:50:23.879Z,98897.84
2023-01-17T00:53:09.392Z,98892.56
2023-01-17T00:55:55.128Z,98906.38
2023-01-17T00:58:40.938Z,98822.06
2023-01-17T01:01:26.823Z,98822.06
2023-01-17T01:04:13.440Z,98921.94
2023-01-17T01:06:59.196Z,98852.56
2023-01-17T01:09:44.762Z,98914.94
2023-01-17T01:12:50.026Z,98865.16
2023-01-17T01:15:48.683Z,98913.38
2023-01-17T01:18:34.182Z,98843.91
2023-01-17T01:21:23.453Z,98865.53
2023-01-17T01:24:09.082Z,98766.50
2023-01-17T01:26:54.802Z,98859.38
2023-01-17T01:29:40.432Z,98765.88
2023-01-17T01:32:26.254Z,98874.47
2023-01-17T01:35:13.497Z,98853.13
2023-01-17T01:38:16.568Z,98875.16
2023-01-17T01:40:57.154Z,98794.28
2023-01-17T01:43:48.887Z,98885.81
2023-01-17T01:46:32.309Z,98889.19
2023-01-17T01:49:03.400Z,98896.94
2023-01-17T01:51:41.617Z,98893.56
2023-01-17T01:54:15.625Z,98885.53
2023-01-17T01:57:05.573Z,98845.16
2023-01-17T01:59:54.528Z,98915.41
2023-01-17T02:02:21.509Z,98874.94
2023-01-17T02:04:49.967Z,98854.03
2023-01-17T02:07:28.400Z,98782.06
2023-01-17T02:09:55.393Z,98820.00
2023-01-17T02:12:42.792Z,98780.09
2023-01-17T02:16:07.640Z,98882.53
2023-01-17T02:19:17.705Z,98813.06
2023-01-17T02:22:19.885Z,98791.53
2023-01-17T02:25:05.240Z,98870.25
2023-01-17T02:27:50.834Z,98770.09
2023-01-17T02:30:32.237Z,98707.63
2023-01-17T02:33:25.148Z,98829.41
2023-01-17T02:36:28.555Z,98796.91
2023-01-17T02:39:33.657Z,98823.72
2023-01-17T02:42:16.711Z,98831.78
2023-01-17T02:44:44.907Z,98795.47
2023-01-17T02:47:21.175Z,98803.59
2023-01-17T02:49:48.284Z,98796.84
2023-01-17T02:52:21.874Z,98812.59
2023-01-17T02:55:11.771Z,98811.00
2023-01-17T02:58:07.261Z,98805.97
2023-01-17T03:01:04.390Z,98796.94
2023-01-17T03:03:51.964Z,98628.66
2023-01-17T03:06:30.643Z,98682.97
2023-01-17T03:08:57.851Z,98805.97
2023-01-17T03:11:44.999Z,98797.72
2023-01-17T03:14:38.785Z,98755.28
2023-01-17T03:17:05.960Z,98745.53
2023-01-17T03:19:33.702Z,98819.22
2023-01-17T03:22:01.074Z,98834.13
2023-01-17T03:24:28.201Z,98826.97
2023-01-17T03:26:55.228Z,98630.47
2023-01-17T03:29:23.048Z,98808.38
2023-01-17T03:31:52.237Z,98794.56
2023-01-17T03:34:39.594Z,98791.44
2023-01-17T03:37:33.557Z,98782.31
2023-01-17T03:40:33.327Z,98790.47
2023-01-17T03:43:00.575Z,98828.97
2023-01-17T03:45:27.839Z,98774.78
2023-01-17T03:47:56.868Z,98777.63
2023-01-17T03:50:24.527Z,98759.81
2023-01-17T03:52:51.575Z,98752.75
2023-01-17T03:55:18.880Z,98792.16
2023-01-17T03:57:45.888Z,98788.41
2023-01-17T04:00:13.637Z,98707.31
2023-01-17T04:02:44.336Z,98648.22
2023-01-17T04:05:11.706Z,98713.72
2023-01-17T04:07:38.706Z,98732.72
2023-01-17T04:10:06.690Z,98691.66
2023-01-17T04:12:53.658Z,98716.25
2023-01-17T04:15:54.545Z,98678.47
2023-01-17T04:18:35.879Z,98553.66
2023-01-17T04:21:03.256Z,98624.72
2023-01-17T04:23:30.174Z,98683.53
2023-01-17T04:25:57.583Z,98723.81
2023-01-17T04:28:24.677Z,98634.94
2023-01-17T04:30:52.544Z,98706.22
2023-01-17T04:33:19.881Z,98567.25
2023-01-17T04:36:06.578Z,98727.75
2023-01-17T04:39:07.599Z,98691.72
2023-01-17T04:41:48.051Z,98723.44
2023-01-17T04:44:15.216Z,98715.16
2023-01-17T04:46:42.104Z,98735.81
2023-01-17T04:49:09.034Z,98722.00
2023-01-17T04:51:36.460Z,98655.19
2023-01-17T04:54:03.868Z,98656.94
2023-01-17T04:56:30.847Z,98585.00
2023-01-17T04:58:58.393Z,98663.44
2023-01-17T05:01:25.473Z,98527.44
2023-01-17T05:03:52.540Z,98623.69
2023-01-17T05:06:19.444Z,98678.63
2023-01-17T05:08:46.427Z,98641.91
2023-01-17T05:11:14.307Z,98625.94
2023-01-17T05:13:54.775Z,98690.81
2023-01-17T05:16:35.498Z,98692.88
2023-01-17T05:19:02.578Z,98640.28
2023-01-17T05:21:30.644Z,98694.31
2023-01-17T05:23:58.507Z,98607.19
2023-01-17T05:26:25.829Z,98669.09
2023-01-17T05:28:53.177Z,98607.28
2023-01-17T05:31:20.885Z,98660.22
2023-01-17T05:33:48.009Z,98657.06
2023-01-17T05:36:34.851Z,98671.28
2023-01-17T05:39:37.939Z,98625.59
2023-01-17T05:42:18.506Z,98613.41
2023-01-17T05:44:48.016Z,98572.97
2023-01-17T05:47:18.079Z,98563.94
2023-01-17T05:49:46.067Z,98400.81
2023-01-17T05:52:21.098Z,98552.31
2023-01-17T05:54:53.469Z,98509.31
2023-01-17T05:57:20.779Z,98446.09
2023-01-17T05:59:51.007Z,98678.22
2023-01-17T06:02:22.475Z,98437.34
2023-01-17T06:04:53.513Z,98453.19
2023-01-17T06:07:20.843Z,98384.03
2023-01-17T06:09:50.482Z,98469.13
2023-01-17T06:12:37.697Z,98600.47
2023-01-17T06:15:46.974Z,98559.84
2023-01-17T06:18:34.633Z,98558.97
2023-01-17T06:21:06.778Z,98598.94
2023-01-17T06:23:37.950Z,98511.78
2023-01-17T06:26:06.608Z,98555.78
2023-01-17T06:28:34.390Z,98626.06
2023-01-17T06:31:09.324Z,98530.22
2023-01-17T06:33:38.069Z,98689.16
2023-01-17T06:36:26.157Z,98594.00
2023-01-17T06:39:30.020Z,98676.66
2023-01-17T06:42:13.993Z,98579.59
2023-01-17T06:44:42.023Z,98616.72
2023-01-17T06:47:14.211Z,98640.09
2023-01-17T06:49:45.055Z,98568.97
2023-01-17T06:52:18.139Z,98546.72
2023-01-17T06:54:54.254Z,98590.47
2023-01-17T06:57:21.930Z,98605.44
2023-01-17T07:00:08.823Z,98556.28
2023-01-17T07:02:54.653Z,98572.53
2023-01-17T07:05:23.137Z,98492.22
2023-01-17T07:07:50.836Z,98552.56
2023-01-17T07:10:18.627Z,98534.63
2023-01-17T07:13:12.922Z,98475.31
2023-01-17T07:16:18.292Z,98620.69
2023-01-17T07:19:23.996Z,98583.84
2023-01-17T07:22:26.753Z,98551.84
2023-01-17T07:25:15.751Z,98524.38
2023-01-17T07:27:47.136Z,98453.69
2023-01-17T07:30:15.640Z,98600.25
2023-01-17T07:32:43.011Z,98615.03
2023-01-17T07:35:37.882Z,98450.34
2023-01-17T07:38:46.027Z,98523.31
2023-01-17T07:41:48.467Z,98560.13
2023-01-17T07:44:29.937Z,98526.81
2023-01-17T07:47:00.565Z,98496.78
2023-01-17T07:49:28.316Z,98446.25
2023-01-17T07:51:58.405Z,98619.34
2023-01-17T07:54:25.919Z,98554.38
2023-01-17T07:56:55.845Z,98374.53
2023-01-17T07:59:23.171Z,98439.13
2023-01-17T08:01:50.486Z,98434.78
2023-01-17T08:04:22.147Z,98576.09
2023-01-17T08:06:52.102Z,98564.44
2023-01-17T08:09:19.758Z,98527.03
2023-01-17T08:12:06.727Z,98497.09
2023-01-17T08:15:07.917Z,98494.09
2023-01-17T08:18:08.899Z,98576.09
2023-01-17T08:21:09.689Z,98547.94
2023-01-17T08:24:11.031Z,98562.72
2023-01-17T08:26:48.141Z,98485.72
2023-01-17T08:29:20.238Z,98418.66
2023-01-17T08:31:47.568Z,98484.75
2023-01-17T08:34:37.124Z,98593.34
2023-01-17T08:37:39.542Z,98470.72
2023-01-17T08:40:33.751Z,98532.63
2023-01-17T08:43:04.912Z,98566.19
2023-01-17T08:45:38.139Z,98421.16
2023-01-17T08:48:14.797Z,98633.00
2023-01-17T08:50:47.630Z,98426.25
2023-01-17T08:53:28.214Z,98215.66
2023-01-17T09:12:31.070Z,98305.66
2023-01-17T09:16:30.844Z,98308.06
2023-01-17T09:19:52.101Z,98415.34
2023-01-17T09:26:30.681Z,98606.34
2023-01-17T09:29:37.141Z,98601.13
2023-01-17T09:32:04.881Z,98516.06
2023-01-17T09:34:51.868Z,98250.78
2023-01-17T10:18:45.433Z,98319.56
2023-01-17T10:22:26.739Z,98559.47
2023-01-17T10:25:26.398Z,98563.66
2023-01-17T10:28:06.713Z,98558.59
2023-01-17T10:30:42.427Z,98561.22
2023-01-17T10:33:18.116Z,98551.69
2023-01-17T10:36:11.397Z,98567.34
2023-01-17T10:39:03.894Z,98558.06
2023-01-17T10:41:37.514Z,98571.19
2023-01-17T10:44:10.495Z,98568.78
2023-01-17T10:46:51.974Z,98545.91
2023-01-17T10:49:34.583Z,98573.00
2023-01-17T10:52:30.580Z,98567.91
2023-01-17T10:55:05.496Z,98559.19
2023-01-17T10:57:39.573Z,98573.50
2023-01-17T11:00:26.714Z,98575.28
2023-01-17T11:03:15.410Z,98541.28
2023-01-17T11:06:32.430Z,98577.25
2023-01-17T11:09:15.303Z,98581.78
2023-01-17T11:12:04.453Z,98557.84
2023-01-17T11:15:05.141Z,98562.69
2023-01-17T11:17:33.420Z,98557.75
2023-01-17T11:20:12.479Z,98557.88
2023-01-17T11:22:39.489Z,98545.59
2023-01-17T11:25:07.274Z,98532.34
2023-01-17T11:27:36.132Z,98491.31
2023-01-17T11:30:15.850Z,98518.66
2023-01-17T11:32:53.779Z,98502.41
2023-01-17T11:35:27.899Z,98541.66
2023-01-17T11:38:18.029Z,98525.00
2023-01-17T11:40:47.085Z,98513.56
2023-01-17T11:43:25.505Z,98477.91
2023-01-17T11:46:14.650Z,98475.09
2023-01-17T11:48:41.701Z,98507.09
2023-01-17T11:51:19.746Z,98481.25
2023-01-17T11:53:48.405Z,98511.28
2023-01-17T11:56:47.452Z,98489.31
2023-01-17T11:59:51.452Z,98486.94
2023-01-17T12:02:44.116Z,98484.38
2023-01-17T12:05:54.490Z,98482.78
2023-01-17T12:08:34.899Z,98479.13
2023-01-17T12:11:17.095Z,98424.00
2023-01-17T12:14:13.501Z,98464.22
2023-01-17T12:17:24.485Z,98455.00
2023-01-17T12:20:17.027Z,98467.00
2023-01-17T12:23:14.166Z,98438.53
2023-01-17T12:25:55.354Z,98437.78
2023-01-17T12:28:54.597Z,98429.31
2023-01-17T12:31:28.035Z,98424.22
2023-01-17T12:34:13.932Z,98404.84
2023-01-17T12:37:02.278Z,98336.44
2023-01-17T12:39:36.091Z,98419.53
2023-01-17T12:42:27.478Z,98429.31
2023-01-17T12:45:10.321Z,98423.88
2023-01-17T12:48:02.620Z,98403.84
2023-01-17T12:51:20.494Z,98385.56
2023-01-17T12:54:10.215Z,98402.41
2023-01-17T12:56:52.666Z,98360.22
2023-01-17T12:59:27.880Z,98408.09
2023-01-17T13:01:59.948Z,98387.28
2023-01-17T13:04:58.851Z,98408.03
2023-01-17T13:08:03.495Z,98388.13
2023-01-17T13:11:14.509Z,98348.19
2023-01-17T13:14:15.520Z,98317.50
2023-01-17T13:17:19.602Z,98376.94
2023-01-17T13:20:10.122Z,98348.69
2023-01-17T13:22:39.875Z,98340.25
2023-01-17T13:25:42.350Z,98296.88
2023-01-17T13:28:18.408Z,98332.63
2023-01-17T13:31:23.407Z,98333.38
2023-01-17T13:33:56.510Z,98322.91
2023-01-17T13:36:45.168Z,98319.41
2023-01-17T13:39:38.159Z,98324.94
2023-01-17T13:42:47.536Z,98309.25
2023-01-17T13:45:52.575Z,98301.25
2023-01-17T13:48:53.557Z,98321.31
2023-01-17T13:52:10.628Z,98311.91
2023-01-17T13:54:51.377Z,98290.44
2023-01-17T13:57:33.001Z,98303.78
2023-01-17T14:00:28.494Z,98306.44
2023-01-17T14:03:11.875Z,98200.19
2023-01-17T14:05:38.799Z,98297.72
2023-01-17T14:08:41.547Z,98253.84
2023-01-17T14:11:46.524Z,98313.09
2023-01-17T14:14:53.573Z,98296.84
2023-01-17T14:17:45.936Z,98285.28
2023-01-17T14:20:12.831Z,98291.19
2023-01-17T14:22:47.857Z,98241.13
2023-01-17T14:25:19.414Z,98310.00
2023-01-17T14:27:53.406Z,98277.00
2023-01-17T14:30:34.111Z,98292.22
2023-01-17T14:33:01.321Z,98289.88
2023-01-17T14:35:30.062Z,98274.25
2023-01-17T14:38:34.526Z,98227.16
2023-01-17T14:41:20.421Z,98262.84
2023-01-17T14:44:07.559Z,98305.25
2023-01-17T14:47:08.547Z,98256.41
2023-01-17T14:50:31.576Z,98315.72
2023-01-17T14:53:38.553Z,98302.69
2023-01-17T14:56:19.191Z,98295.56
2023-01-17T14:59:26.685Z,98322.75
2023-01-17T15:02:16.492Z,98304.84
2023-01-17T15:04:43.569Z,98277.84
2023-01-17T15:07:23.156Z,98332.97
2023-01-17T15:09:50.250Z,98269.66
2023-01-17T15:12:37.674Z,98290.66
2023-01-17T15:15:46.533Z,98363.16
2023-01-17T15:18:50.608Z,98328.94
2023-01-17T15:21:40.573Z,98306.41
2023-01-17T15:24:13.106Z,98313.81
2023-01-17T15:26:43.308Z,98373.72
2023-01-17T15:29:25.820Z,98378.59
2023-01-17T15:32:18.637Z,98318.81
2023-01-17T15:35:02.546Z,98377.09
2023-01-17T15:37:33.415Z,98353.34
2023-01-17T15:40:20.464Z,98388.47
2023-01-17T15:43:00.978Z,98408.56
2023-01-17T15:45:47.598Z,98339.59
2023-01-17T15:48:54.565Z,98388.03
2023-01-17T15:51:39.121Z,98351.09
2023-01-17T15:54:59.581Z,98373.38
2023-01-17T15:58:00.613Z,98338.84
2023-01-17T16:00:42.081Z,98328.38
2023-01-17T16:03:27.551Z,98372.59
2023-01-17T16:06:15.668Z,98365.34
2023-01-17T16:09:16.578Z,98364.81
2023-01-17T16:12:17.608Z,98370.13
2023-01-17T16:15:18.632Z,98333.56
2023-01-17T16:17:57.846Z,98371.53
2023-01-17T16:20:36.080Z,98284.00
2023-01-17T16:23:03.227Z,98352.94
2023-01-17T16:25:50.611Z,98393.84
2023-01-17T16:28:31.195Z,98350.28
2023-01-17T16:30:58.338Z,98352.09
2023-01-17T16:33:25.253Z,98380.00
2023-01-17T16:35:54.434Z,98287.19
2023-01-17T16:38:21.380Z,98330.00
2023-01-17T16:40:48.722Z,98369.69
2023-01-17T16:43:18.403Z,98364.31
2023-01-17T16:46:06.683Z,98365.13
2023-01-17T16:48:51.957Z,98309.00
2023-01-17T16:51:38.604Z,98287.00
2023-01-17T16:54:19.453Z,98324.00
2023-01-17T16:57:06.614Z,98350.56
2023-01-17T16:59:51.158Z,98367.31
2023-01-17T17:02:18.817Z,98341.63
2023-01-17T17:04:45.866Z,98296.03
2023-01-17T17:07:12.882Z,98372.94
2023-01-17T17:09:39.769Z,98355.19
2023-01-17T17:12:26.623Z,98373.19
2023-01-17T17:15:27.587Z,98406.63
2023-01-17T17:18:30.633Z,98403.94
2023-01-17T17:21:17.937Z,98314.91
2023-01-17T17:23:45.015Z,98332.34
2023-01-17T17:26:11.998Z,98312.53
2023-01-17T17:28:39.030Z,98384.13
2023-01-17T17:31:10.422Z,98402.56
2023-01-17T17:33:38.809Z,98413.75
2023-01-17T17:36:07.931Z,98366.88
2023-01-17T17:38:35.116Z,98324.88
2023-01-17T17:41:09.894Z,98398.97
2023-01-17T17:43:41.316Z,98395.81
2023-01-17T17:46:28.703Z,98386.91
2023-01-17T17:49:09.454Z,98395.75
2023-01-17T17:51:56.650Z,98373.38
2023-01-17T17:54:37.116Z,98344.78
2023-01-17T17:57:04.228Z,98392.00
2023-01-17T17:59:31.284Z,98306.88
2023-01-17T18:01:59.935Z,98331.63
2023-01-17T18:04:27.467Z,98348.66
2023-01-17T18:07:14.631Z,98355.06
2023-01-17T18:09:55.325Z,98348.13
2023-01-17T18:12:42.649Z,98402.22
2023-01-17T18:15:43.668Z,98421.03
2023-01-17T18:18:44.656Z,98385.63
2023-01-17T18:21:33.867Z,98397.69
2023-01-17T18:24:11.537Z,98443.91
2023-01-17T18:26:45.578Z,98437.94
2023-01-17T18:29:17.794Z,98441.00
2023-01-17T18:31:46.026Z,98436.16
2023-01-17T18:34:17.899Z,98416.03
2023-01-17T18:36:45.426Z,98414.97
2023-01-17T18:39:21.631Z,98436.94
2023-01-17T18:41:49.444Z,98421.53
2023-01-17T18:44:16.876Z,98319.19
2023-01-17T18:46:48.549Z,98429.59
2023-01-17T18:49:18.320Z,98435.34
2023-01-17T18:51:51.823Z,98428.69
2023-01-17T18:54:20.976Z,98356.63
2023-01-17T18:56:48.309Z,98282.50
2023-01-17T18:59:18.445Z,98339.75
2023-01-17T19:01:46.472Z,98332.28
2023-01-17T19:04:15.966Z,98358.28
2023-01-17T19:07:03.716Z,98357.88
2023-01-17T19:09:49.610Z,98425.19
2023-01-17T19:12:36.682Z,98348.34
2023-01-17T19:15:30.839Z,98384.47
2023-01-17T19:18:24.673Z,98432.53
2023-01-17T19:21:31.747Z,98434.28
2023-01-17T19:24:15.717Z,98391.13
2023-01-17T19:26:43.240Z,98457.66
2023-01-17T19:29:10.596Z,98415.41
2023-01-17T19:31:43.280Z,98445.31
2023-01-17T19:34:14.029Z,98412.28
2023-01-17T19:36:41.941Z,98405.03
2023-01-17T19:39:09.689Z,98451.16
2023-01-17T19:41:58.707Z,98441.59
2023-01-17T19:44:59.689Z,98418.75
2023-01-17T19:47:40.366Z,98437.63
2023-01-17T19:50:09.551Z,98451.09
2023-01-17T19:52:56.739Z,98453.72
2023-01-17T19:55:57.967Z,98404.75
2023-01-17T19:58:59.740Z,98445.13
2023-01-17T20:02:01.094Z,98442.00
2023-01-17T20:04:50.052Z,98417.63
2023-01-17T20:07:37.768Z,98311.97
2023-01-17T20:10:38.763Z,98402.75
2023-01-17T20:13:39.763Z,98376.69
2023-01-17T20:16:44.788Z,98412.81
2023-01-17T20:19:45.697Z,98413.06
2023-01-17T20:22:48.029Z,98380.81
2023-01-17T20:25:48.783Z,98398.03
2023-01-17T20:28:51.793Z,98310.88
2023-01-17T20:31:58.772Z,98408.38
2023-01-17T20:35:01.840Z,98336.47
2023-01-17T20:37:42.822Z,98359.47
2023-01-17T20:40:12.187Z,98410.25
2023-01-17T20:42:52.821Z,98376.72
2023-01-17T20:45:33.493Z,98396.97
2023-01-17T20:48:00.929Z,98408.31
2023-01-17T20:50:28.292Z,98340.59
2023-01-17T20:53:15.792Z,98367.25
2023-01-17T20:56:19.012Z,98353.63
2023-01-17T20:59:22.009Z,98423.97
2023-01-17T21:02:22.860Z,98423.09
2023-01-17T21:05:03.777Z,98367.50
2023-01-17T21:07:50.755Z,98412.31
2023-01-17T21:10:51.751Z,98332.97
2023-01-17T21:14:03.454Z,98429.81
2023-01-17T21:17:03.829Z,98384.19
2023-01-17T21:20:04.757Z,98389.84
2023-01-17T21:23:05.907Z,98415.75
2023-01-17T21:26:07.766Z,98423.63
2023-01-17T21:29:12.799Z,98429.44
2023-01-17T21:32:04.494Z,98372.38
2023-01-17T21:34:51.773Z,98308.94
2023-01-17T21:37:37.695Z,98428.88
2023-01-17T21:40:26.846Z,98431.06
2023-01-17T21:43:28.769Z,98352.31
2023-01-17T21:46:29.746Z,98367.09
2023-01-17T21:49:12.049Z,98356.03
2023-01-17T21:51:54.945Z,98388.16
2023-01-17T21:55:00.754Z,98385.41
2023-01-17T21:57:59.993Z,98426.91
2023-01-17T22:00:26.977Z,98305.34
2023-01-17T22:02:54.036Z,98441.59
2023-01-17T22:05:21.039Z,98307.31
2023-01-17T22:08:19.751Z,98375.88
2023-01-17T22:11:23.742Z,98408.72
2023-01-17T22:14:25.829Z,98375.59
2023-01-17T22:17:27.809Z,98415.44
2023-01-17T22:19:58.709Z,98397.50
2023-01-17T22:22:25.796Z,98290.34
2023-01-17T22:24:52.744Z,98324.53
2023-01-17T22:27:40.777Z,98394.41
2023-01-17T22:30:41.866Z,98400.03
2023-01-17T22:33:22.634Z,98440.91
2023-01-17T22:35:57.935Z,98406.19
2023-01-17T22:38:25.002Z,98388.50
2023-01-17T22:40:51.949Z,98398.13
2023-01-17T22:43:40.864Z,98366.16
2023-01-17T22:46:44.827Z,98376.56
2023-01-17T22:49:25.332Z,98437.78
2023-01-17T22:51:52.272Z,98362.38
2023-01-17T22:54:19.572Z,98357.22
2023-01-17T22:56:46.619Z,98447.16
2023-01-17T22:59:14.220Z,98390.84
2023-01-17T23:01:41.143Z,98420.56
2023-01-17T23:04:12.414Z,98440.59
2023-01-17T23:06:59.798Z,98346.34
2023-01-17T23:09:40.277Z,98331.03
2023-01-17T23:12:26.774Z,98418.28
2023-01-17T23:15:25.982Z,98361.44
2023-01-17T23:18:41.907Z,98387.06
2023-01-17T23:22:00.802Z,98325.91
2023-01-17T23:24:55.218Z,98333.09
2023-01-17T23:27:45.453Z,98375.22
2023-01-17T23:30:40.796Z,98397.53
2023-01-17T23:33:49.116Z,98383.53
2023-01-17T23:36:29.374Z,98354.25
2023-01-17T23:38:56.268Z,98355.16
2023-01-17T23:41:47.825Z,98367.53
2023-01-17T23:44:48.822Z,98362.09
2023-01-17T23:47:54.292Z,98337.72
2023-01-17T23:50:24.447Z,98376.22
2023-01-17T23:53:14.801Z,98341.34
2023-01-17T23:56:23.879Z,98410.75
2023-01-17T23:59:04.554Z,98398.81
